sensor_id;sensor_type;location;lat;lon;timestamp;pressure;altitude;pressure_sealevel;temperature;humidity
18652;BME280;9455;54.302;10.124;2022-11-12T00:00:50;102964.06;;;12.06;92.65
18652;BME280;9455;54.302;10.124;2022-11-12T00:03:16;102964.34;;;12.02;92.64
18652;BME280;9455;54.302;10.124;2022-11-12T00:05:43;102967.19;;;11.99;92.79
18652;BME280;9455;54.302;10.124;2022-11-12T00:08:10;102958.97;;;12.02;92.73
18652;BME280;9455;54.302;10.124;2022-11-12T00:10:37;102965.56;;;11.96;92.90
18652;BME280;9455;54.302;10.124;2022-11-12T00:13:05;102956.75;;;11.94;92.94
18652;BME280;9455;54.302;10.124;2022-11-12T00:15:31;102956.06;;;11.91;92.97
18652;BME280;9455;54.302;10.124;2022-11-12T00:17:58;102957.88;;;11.90;93.05
18652;BME280;9455;54.302;10.124;2022-11-12T00:20:25;102947.59;;;11.83;93.49
18652;BME280;9455;54.302;10.124;2022-11-12T00:22:51;102967.13;;;11.85;93.53
18652;BME280;9455;54.302;10.124;2022-11-12T00:25:18;102955.63;;;11.83;93.59
18652;BME280;9455;54.302;10.124;2022-11-12T00:27:44;102956.00;;;11.77;93.65
18652;BME280;9455;54.302;10.124;2022-11-12T00:30:13;102948.91;;;11.76;93.51
18652;BME280;9455;54.302;10.124;2022-11-12T00:32:39;102959.19;;;11.68;93.72
18652;BME280;9455;54.302;10.124;2022-11-12T00:35:07;102961.41;;;11.60;94.10
18652;BME280;9455;54.302;10.124;2022-11-12T00:37:34;102963.47;;;11.55;94.48
18652;BME280;9455;54.302;10.124;2022-11-12T00:40:00;102966.38;;;11.50;94.64
18652;BME280;9455;54.302;10.124;2022-11-12T00:42:27;102965.53;;;11.50;94.57
18652;BME280;9455;54.302;10.124;2022-11-12T00:44:54;102965.53;;;11.50;94.99
18652;BME280;9455;54.302;10.124;2022-11-12T00:47:22;102967.44;;;11.48;94.84
18652;BME280;9455;54.302;10.124;2022-11-12T00:49:48;102966.56;;;11.47;94.92
18652;BME280;9455;54.302;10.124;2022-11-12T00:52:15;102970.00;;;11.49;95.23
18652;BME280;9455;54.302;10.124;2022-11-12T00:54:41;102968.97;;;11.52;95.05
18652;BME280;9455;54.302;10.124;2022-11-12T00:57:08;102967.25;;;11.51;94.76
18652;BME280;9455;54.302;10.124;2022-11-12T00:59:35;102982.59;;;11.47;95.13
18652;BME280;9455;54.302;10.124;2022-11-12T01:02:02;102983.63;;;11.45;95.15
18652;BME280;9455;54.302;10.124;2022-11-12T01:04:30;102978.13;;;11.48;95.01
18652;BME280;9455;54.302;10.124;2022-11-12T01:06:56;102969.13;;;11.49;95.07
18652;BME280;9455;54.302;10.124;2022-11-12T01:09:23;102967.44;;;11.48;95.16
18652;BME280;9455;54.302;10.124;2022-11-12T01:11:49;102973.63;;;11.48;95.22
18652;BME280;9455;54.302;10.124;2022-11-12T01:14:16;102969.22;;;11.47;95.31
18652;BME280;9455;54.302;10.124;2022-11-12T01:16:42;102971.38;;;11.41;95.44
18652;BME280;9455;54.302;10.124;2022-11-12T01:19:10;102981.13;;;11.42;95.11
18652;BME280;9455;54.302;10.124;2022-11-12T01:21:41;102965.72;;;11.47;95.33
18652;BME280;9455;54.302;10.124;2022-11-12T01:24:08;102970.25;;;11.45;95.40
18652;BME280;9455;54.302;10.124;2022-11-12T01:26:36;102968.38;;;11.47;95.06
18652;BME280;9455;54.302;10.124;2022-11-12T01:29:03;102969.34;;;11.46;95.04
18652;BME280;9455;54.302;10.124;2022-11-12T01:31:31;102974.06;;;11.41;95.46
18652;BME280;9455;54.302;10.124;2022-11-12T01:33:59;102969.34;;;11.46;95.50
18652;BME280;9455;54.302;10.124;2022-11-12T01:36:29;102980.03;;;11.46;95.28
18652;BME280;9455;54.302;10.124;2022-11-12T01:38:58;102981.19;;;11.40;95.39
18652;BME280;9455;54.302;10.124;2022-11-12T01:41:26;102976.81;;;11.39;96.03
18652;BME280;9455;54.302;10.124;2022-11-12T01:44:11;102976.06;;;11.37;95.70
18652;BME280;9455;54.302;10.124;2022-11-12T01:46:45;102980.53;;;11.37;95.90
18652;BME280;9455;54.302;10.124;2022-11-12T01:49:18;102973.09;;;11.42;95.72
18652;BME280;9455;54.302;10.124;2022-11-12T01:51:48;102966.56;;;11.47;96.20
18652;BME280;9455;54.302;10.124;2022-11-12T01:54:19;102975.00;;;11.40;95.74
18652;BME280;9455;54.302;10.124;2022-11-12T01:56:48;102981.31;;;11.39;95.91
18652;BME280;9455;54.302;10.124;2022-11-12T01:59:19;102977.06;;;11.35;96.06
18652;BME280;9455;54.302;10.124;2022-11-12T02:01:47;102982.22;;;11.38;95.97
18652;BME280;9455;54.302;10.124;2022-11-12T02:04:14;102964.56;;;11.35;95.97
18652;BME280;9455;54.302;10.124;2022-11-12T02:06:42;102971.53;;;11.38;95.96
18652;BME280;9455;54.302;10.124;2022-11-12T02:09:10;102982.41;;;11.35;95.85
18652;BME280;9455;54.302;10.124;2022-11-12T02:11:39;102968.38;;;11.31;96.18
18652;BME280;9455;54.302;10.124;2022-11-12T02:14:06;102946.91;;;11.33;96.44
18652;BME280;9455;54.302;10.124;2022-11-12T02:16:34;102963.97;;;11.30;96.39
18652;BME280;9455;54.302;10.124;2022-11-12T02:19:03;102965.63;;;11.33;96.35
18652;BME280;9455;54.302;10.124;2022-11-12T02:21:31;102971.19;;;11.28;96.33
18652;BME280;9455;54.302;10.124;2022-11-12T02:24:03;102962.31;;;11.27;96.73
18652;BME280;9455;54.302;10.124;2022-11-12T02:26:32;102984.56;;;11.28;97.06
18652;BME280;9455;54.302;10.124;2022-11-12T02:28:59;102977.41;;;11.29;96.78
18652;BME280;9455;54.302;10.124;2022-11-12T02:31:27;102977.06;;;11.35;96.65
18652;BME280;9455;54.302;10.124;2022-11-12T02:33:53;102987.75;;;11.35;96.65
18652;BME280;9455;54.302;10.124;2022-11-12T02:36:21;102991.44;;;11.32;96.51
18652;BME280;9455;54.302;10.124;2022-11-12T02:38:49;102986.19;;;11.31;96.34
18652;BME280;9455;54.302;10.124;2022-11-12T02:41:15;102989.50;;;11.36;96.58
18652;BME280;9455;54.302;10.124;2022-11-12T02:43:42;102998.09;;;11.41;96.34
18652;BME280;9455;54.302;10.124;2022-11-12T02:46:09;102984.06;;;11.37;96.58
18652;BME280;9455;54.302;10.124;2022-11-12T02:48:35;102991.22;;;11.37;96.70
18652;BME280;9455;54.302;10.124;2022-11-12T02:51:02;102996.63;;;11.35;96.45
18652;BME280;9455;54.302;10.124;2022-11-12T02:53:29;103003.59;;;11.38;96.63
18652;BME280;9455;54.302;10.124;2022-11-12T02:55:59;103007.22;;;11.37;96.44
18652;BME280;9455;54.302;10.124;2022-11-12T02:58:26;102993.09;;;11.35;96.67
18652;BME280;9455;54.302;10.124;2022-11-12T03:00:52;103002.75;;;11.37;96.69
18652;BME280;9455;54.302;10.124;2022-11-12T03:03:19;102991.38;;;11.34;96.60
18652;BME280;9455;54.302;10.124;2022-11-12T03:05:53;103002.13;;;11.32;96.78
18652;BME280;9455;54.302;10.124;2022-11-12T03:08:20;103004.97;;;11.29;96.78
18652;BME280;9455;54.302;10.124;2022-11-12T03:10:47;103018.56;;;11.24;97.38
18652;BME280;9455;54.302;10.124;2022-11-12T03:13:15;103002.31;;;11.29;96.92
18652;BME280;9455;54.302;10.124;2022-11-12T03:15:42;102997.75;;;11.31;96.86
18652;BME280;9455;54.302;10.124;2022-11-12T03:18:08;103002.22;;;11.31;97.22
18652;BME280;9455;54.302;10.124;2022-11-12T03:20:35;102992.09;;;11.37;96.84
18652;BME280;9455;54.302;10.124;2022-11-12T03:23:04;102995.44;;;11.41;96.73
18652;BME280;9455;54.302;10.124;2022-11-12T03:25:31;102993.78;;;11.38;96.53
18652;BME280;9455;54.302;10.124;2022-11-12T03:27:59;102992.50;;;11.30;96.95
18652;BME280;9455;54.302;10.124;2022-11-12T03:30:28;102985.34;;;11.30;96.87
18652;BME280;9455;54.302;10.124;2022-11-12T03:32:55;102994.13;;;11.32;96.98
18652;BME280;9455;54.302;10.124;2022-11-12T03:35:22;103004.13;;;11.29;97.32
18652;BME280;9455;54.302;10.124;2022-11-12T03:37:49;103008.34;;;11.33;97.02
18652;BME280;9455;54.302;10.124;2022-11-12T03:40:16;102991.22;;;11.37;96.62
18652;BME280;9455;54.302;10.124;2022-11-12T03:42:46;102992.66;;;11.27;96.89
18652;BME280;9455;54.302;10.124;2022-11-12T03:45:14;103002.38;;;11.27;97.18
18652;BME280;9455;54.302;10.124;2022-11-12T03:47:43;103005.69;;;11.33;97.01
18652;BME280;9455;54.302;10.124;2022-11-12T03:50:11;103006.72;;;11.30;97.33
18652;BME280;9455;54.302;10.124;2022-11-12T03:52:38;103010.56;;;11.24;97.31
18652;BME280;9455;54.302;10.124;2022-11-12T03:55:09;103004.97;;;11.29;97.21
18652;BME280;9455;54.302;10.124;2022-11-12T03:57:35;103010.16;;;11.32;97.16
18652;BME280;9455;54.302;10.124;2022-11-12T04:00:03;103015.56;;;11.31;96.69
18652;BME280;9455;54.302;10.124;2022-11-12T04:02:30;103017.75;;;11.40;96.85
18652;BME280;9455;54.302;10.124;2022-11-12T04:04:58;103025.31;;;11.32;96.53
18652;BME280;9455;54.302;10.124;2022-11-12T04:07:42;103031.44;;;11.34;96.78
18652;BME280;9455;54.302;10.124;2022-11-12T04:10:31;103031.03;;;11.41;96.70
18652;BME280;9455;54.302;10.124;2022-11-12T04:12:58;103033.94;;;11.37;96.76
18652;BME280;9455;54.302;10.124;2022-11-12T04:15:42;103035.81;;;11.35;96.68
18652;BME280;9455;54.302;10.124;2022-11-12T04:18:08;103042.91;;;11.36;96.50
18652;BME280;9455;54.302;10.124;2022-11-12T04:20:54;103042.56;;;11.42;96.38
18652;BME280;9455;54.302;10.124;2022-11-12T04:23:39;103031.97;;;11.40;96.59
18652;BME280;9455;54.302;10.124;2022-11-12T04:26:06;103037.56;;;11.36;96.66
18652;BME280;9455;54.302;10.124;2022-11-12T04:28:49;103034.28;;;11.31;97.00
18652;BME280;9455;54.302;10.124;2022-11-12T04:31:30;103047.16;;;11.40;96.76
18652;BME280;9455;54.302;10.124;2022-11-12T04:33:56;103044.47;;;11.40;97.04
18652;BME280;9455;54.302;10.124;2022-11-12T04:36:45;103040.09;;;11.39;96.65
18652;BME280;9455;54.302;10.124;2022-11-12T04:39:11;103036.69;;;11.35;96.73
18652;BME280;9455;54.302;10.124;2022-11-12T04:41:38;103046.34;;;11.38;96.68
18652;BME280;9455;54.302;10.124;2022-11-12T04:44:21;103045.66;;;11.34;96.84
18652;BME280;9455;54.302;10.124;2022-11-12T04:47:07;103041.16;;;11.35;97.00
18652;BME280;9455;54.302;10.124;2022-11-12T04:49:34;103039.47;;;11.34;96.71
18652;BME280;9455;54.302;10.124;2022-11-12T04:52:02;103045.44;;;11.39;96.89
18652;BME280;9455;54.302;10.124;2022-11-12T04:54:32;103051.53;;;11.41;96.90
18652;BME280;9455;54.302;10.124;2022-11-12T04:56:59;103053.88;;;11.47;96.35
18652;BME280;9455;54.302;10.124;2022-11-12T04:59:26;103038.97;;;11.43;96.33
18652;BME280;9455;54.302;10.124;2022-11-12T05:01:52;103044.31;;;11.43;96.09
18652;BME280;9455;54.302;10.124;2022-11-12T05:04:19;103047.75;;;11.45;96.24
18652;BME280;9455;54.302;10.124;2022-11-12T05:06:46;103057.22;;;11.50;96.05
18652;BME280;9455;54.302;10.124;2022-11-12T05:09:22;103056.88;;;11.41;96.51
18652;BME280;9455;54.302;10.124;2022-11-12T05:11:49;103053.44;;;11.39;96.39
18652;BME280;9455;54.302;10.124;2022-11-12T05:14:16;103055.59;;;11.48;96.26
18652;BME280;9455;54.302;10.124;2022-11-12T05:16:43;103045.00;;;11.46;96.44
18652;BME280;9455;54.302;10.124;2022-11-12T05:19:10;103044.03;;;11.47;96.49
18652;BME280;9455;54.302;10.124;2022-11-12T05:21:37;103051.88;;;11.50;96.61
18652;BME280;9455;54.302;10.124;2022-11-12T05:24:22;103045.88;;;11.47;96.37
18652;BME280;9455;54.302;10.124;2022-11-12T05:26:49;103037.50;;;11.37;96.40
18652;BME280;9455;54.302;10.124;2022-11-12T05:29:16;103044.16;;;11.46;96.53
18652;BME280;9455;54.302;10.124;2022-11-12T05:31:43;103047.91;;;11.42;96.23
18652;BME280;9455;54.302;10.124;2022-11-12T05:34:09;103053.09;;;11.45;95.85
18652;BME280;9455;54.302;10.124;2022-11-12T05:36:36;103048.63;;;11.45;95.60
18652;BME280;9455;54.302;10.124;2022-11-12T05:39:03;103050.88;;;11.53;95.59
18652;BME280;9455;54.302;10.124;2022-11-12T05:41:31;103052.66;;;11.37;95.73
18652;BME280;9455;54.302;10.124;2022-11-12T05:43:57;103051.19;;;11.31;96.13
18652;BME280;9455;54.302;10.124;2022-11-12T05:46:24;103056.50;;;11.31;96.51
18652;BME280;9455;54.302;10.124;2022-11-12T05:48:51;103053.44;;;11.39;96.26
18652;BME280;9455;54.302;10.124;2022-11-12T05:51:17;103050.94;;;11.36;95.84
18652;BME280;9455;54.302;10.124;2022-11-12T05:53:44;103050.13;;;11.34;96.19
18652;BME280;9455;54.302;10.124;2022-11-12T05:56:11;103064.13;;;11.39;96.19
18652;BME280;9455;54.302;10.124;2022-11-12T05:58:39;103061.25;;;11.42;95.73
18652;BME280;9455;54.302;10.124;2022-11-12T06:01:05;103053.09;;;11.45;95.43
18652;BME280;9455;54.302;10.124;2022-11-12T06:03:32;103054.44;;;11.36;96.14
18652;BME280;9455;54.302;10.124;2022-11-12T06:05:59;103066.84;;;11.22;96.39
18652;BME280;9455;54.302;10.124;2022-11-12T06:08:25;103074.19;;;11.34;95.96
18652;BME280;9455;54.302;10.124;2022-11-12T06:10:53;103070.56;;;11.35;96.05
18652;BME280;9455;54.302;10.124;2022-11-12T06:13:21;103063.19;;;11.40;95.26
18652;BME280;9455;54.302;10.124;2022-11-12T06:15:49;103073.16;;;11.36;95.61
18652;BME280;9455;54.302;10.124;2022-11-12T06:18:16;103073.75;;;11.26;95.82
18652;BME280;9455;54.302;10.124;2022-11-12T06:20:42;103077.28;;;11.42;95.42
18652;BME280;9455;54.302;10.124;2022-11-12T06:23:09;103070.63;;;11.33;95.35
18652;BME280;9455;54.302;10.124;2022-11-12T06:25:36;103083.31;;;11.30;96.00
18652;BME280;9455;54.302;10.124;2022-11-12T06:28:02;103090.81;;;11.23;96.17
18652;BME280;9455;54.302;10.124;2022-11-12T06:30:29;103087.25;;;11.23;96.30
18652;BME280;9455;54.302;10.124;2022-11-12T06:32:57;103095.03;;;11.10;96.38
18652;BME280;9455;54.302;10.124;2022-11-12T06:35:24;103097.47;;;11.14;96.22
18652;BME280;9455;54.302;10.124;2022-11-12T06:37:50;103100.75;;;11.19;95.52
18652;BME280;9455;54.302;10.124;2022-11-12T06:40:18;103103.59;;;11.16;94.73
18652;BME280;9455;54.302;10.124;2022-11-12T06:42:44;103107.84;;;11.03;94.78
18652;BME280;9455;54.302;10.124;2022-11-12T06:45:11;103101.66;;;11.03;94.99
18652;BME280;9455;54.302;10.124;2022-11-12T06:47:37;103089.94;;;10.88;95.15
18652;BME280;9455;54.302;10.124;2022-11-12T06:50:06;103104.25;;;10.87;95.50
18652;BME280;9455;54.302;10.124;2022-11-12T06:52:33;103110.13;;;10.77;95.74
18652;BME280;9455;54.302;10.124;2022-11-12T06:54:59;103109.41;;;10.73;95.82
18652;BME280;9455;54.302;10.124;2022-11-12T06:57:26;103109.81;;;10.83;96.08
18652;BME280;9455;54.302;10.124;2022-11-12T06:59:52;103118.34;;;10.89;94.92
18652;BME280;9455;54.302;10.124;2022-11-12T07:02:19;103120.88;;;10.75;95.08
18652;BME280;9455;54.302;10.124;2022-11-12T07:04:45;103134.06;;;10.78;94.83
18652;BME280;9455;54.302;10.124;2022-11-12T07:07:13;103121.59;;;10.79;95.31
18652;BME280;9455;54.302;10.124;2022-11-12T07:09:40;103116.88;;;10.84;95.02
18652;BME280;9455;54.302;10.124;2022-11-12T07:12:07;103124.34;;;10.77;95.60
18652;BME280;9455;54.302;10.124;2022-11-12T07:14:33;103129.38;;;10.83;95.12
18652;BME280;9455;54.302;10.124;2022-11-12T07:17:00;103136.28;;;10.87;94.81
18652;BME280;9455;54.302;10.124;2022-11-12T07:19:26;103120.56;;;10.81;95.39
18652;BME280;9455;54.302;10.124;2022-11-12T07:21:53;103139.31;;;10.80;95.89
18652;BME280;9455;54.302;10.124;2022-11-12T07:24:21;103152.44;;;10.84;95.20
18652;BME280;9455;54.302;10.124;2022-11-12T07:26:48;103141.13;;;10.96;94.46
18652;BME280;9455;54.302;10.124;2022-11-12T07:29:14;103135.78;;;10.96;94.00
18652;BME280;9455;54.302;10.124;2022-11-12T07:31:41;103136.91;;;10.92;93.82
18652;BME280;9455;54.302;10.124;2022-11-12T07:34:07;103142.09;;;10.95;94.02
18652;BME280;9455;54.302;10.124;2022-11-12T07:36:34;103136.44;;;10.84;94.17
18652;BME280;9455;54.302;10.124;2022-11-12T07:39:00;103139.88;;;10.86;94.17
18652;BME280;9455;54.302;10.124;2022-11-12T07:41:28;103159.72;;;10.81;94.64
18652;BME280;9455;54.302;10.124;2022-11-12T07:43:55;103156.31;;;10.96;93.58
18652;BME280;9455;54.302;10.124;2022-11-12T07:46:23;103140.81;;;10.85;93.71
18652;BME280;9455;54.302;10.124;2022-11-12T07:48:50;103148.81;;;10.85;94.04
18652;BME280;9455;54.302;10.124;2022-11-12T07:51:19;103157.94;;;10.81;93.56
18652;BME280;9455;54.302;10.124;2022-11-12T07:53:47;103158.81;;;10.82;93.73
18652;BME280;9455;54.302;10.124;2022-11-12T07:56:15;103145.94;;;10.90;93.43
18652;BME280;9455;54.302;10.124;2022-11-12T07:58:44;103145.78;;;10.93;92.72
18652;BME280;9455;54.302;10.124;2022-11-12T08:01:18;103150.81;;;10.99;93.05
18652;BME280;9455;54.302;10.124;2022-11-12T08:03:48;103153.41;;;11.00;92.85
18652;BME280;9455;54.302;10.124;2022-11-12T08:06:14;103161.22;;;11.03;92.57
18652;BME280;9455;54.302;10.124;2022-11-12T08:08:41;103161.09;;;11.06;92.99
18652;BME280;9455;54.302;10.124;2022-11-12T08:11:08;103157.56;;;11.06;92.91
18652;BME280;9455;54.302;10.124;2022-11-12T08:13:34;103165.09;;;11.15;92.24
18652;BME280;9455;54.302;10.124;2022-11-12T08:16:03;103173.03;;;10.99;92.93
18652;BME280;9455;54.302;10.124;2022-11-12T08:18:29;103166.72;;;11.17;92.39
18652;BME280;9455;54.302;10.124;2022-11-12T08:20:58;103149.63;;;11.04;92.47
18652;BME280;9455;54.302;10.124;2022-11-12T08:23:26;103166.13;;;11.12;92.05
18652;BME280;9455;54.302;10.124;2022-11-12T08:25:56;103167.69;;;11.16;91.71
18652;BME280;9455;54.302;10.124;2022-11-12T08:28:23;103180.34;;;11.13;93.01
18652;BME280;9455;54.302;10.124;2022-11-12T08:30:50;103161.38;;;11.17;92.13
18652;BME280;9455;54.302;10.124;2022-11-12T08:33:18;103146.56;;;11.12;92.15
18652;BME280;9455;54.302;10.124;2022-11-12T08:35:44;103154.63;;;11.10;92.07
18652;BME280;9455;54.302;10.124;2022-11-12T08:38:11;103168.16;;;11.24;91.03
18652;BME280;9455;54.302;10.124;2022-11-12T08:40:39;103175.31;;;11.24;90.83
18652;BME280;9455;54.302;10.124;2022-11-12T08:43:07;103176.50;;;11.01;92.15
18652;BME280;9455;54.302;10.124;2022-11-12T08:45:35;103161.59;;;11.14;91.41
18652;BME280;9455;54.302;10.124;2022-11-12T08:48:05;103149.94;;;11.15;91.11
18652;BME280;9455;54.302;10.124;2022-11-12T08:50:33;103157.31;;;11.27;91.16
18652;BME280;9455;54.302;10.124;2022-11-12T08:53:00;103177.91;;;11.08;91.47
18652;BME280;9455;54.302;10.124;2022-11-12T08:55:28;103176.50;;;11.36;90.85
18652;BME280;9455;54.302;10.124;2022-11-12T08:57:54;103171.63;;;11.27;90.29
18652;BME280;9455;54.302;10.124;2022-11-12T09:00:26;103163.16;;;11.18;91.56
18652;BME280;9455;54.302;10.124;2022-11-12T09:02:53;103166.28;;;11.27;90.60
18652;BME280;9455;54.302;10.124;2022-11-12T09:05:20;103181.75;;;11.20;90.69
18652;BME280;9455;54.302;10.124;2022-11-12T09:07:55;103182.84;;;11.33;90.08
18652;BME280;9455;54.302;10.124;2022-11-12T09:10:22;103187.34;;;11.33;90.31
18652;BME280;9455;54.302;10.124;2022-11-12T09:12:49;103182.91;;;11.32;89.79
18652;BME280;9455;54.302;10.124;2022-11-12T09:15:17;103182.00;;;11.33;90.41
18652;BME280;9455;54.302;10.124;2022-11-12T09:17:44;103185.28;;;11.38;90.11
18652;BME280;9455;54.302;10.124;2022-11-12T09:20:10;103179.53;;;11.45;89.47
18652;BME280;9455;54.302;10.124;2022-11-12T09:22:37;103178.75;;;11.43;89.47
18652;BME280;9455;54.302;10.124;2022-11-12T09:25:06;103192.25;;;11.57;88.95
18652;BME280;9455;54.302;10.124;2022-11-12T09:27:33;103190.25;;;11.62;88.87
18652;BME280;9455;54.302;10.124;2022-11-12T09:29:59;103184.59;;;11.68;88.67
18652;BME280;9455;54.302;10.124;2022-11-12T09:32:26;103198.41;;;11.76;88.34
18652;BME280;9455;54.302;10.124;2022-11-12T09:34:53;103204.22;;;11.67;89.20
18652;BME280;9455;54.302;10.124;2022-11-12T09:37:20;103203.38;;;11.67;90.09
18652;BME280;9455;54.302;10.124;2022-11-12T09:39:46;103200.97;;;11.61;89.28
18652;BME280;9455;54.302;10.124;2022-11-12T09:42:16;103206.97;;;11.66;88.63
18652;BME280;9455;54.302;10.124;2022-11-12T09:44:53;103212.78;;;11.57;90.03
18652;BME280;9455;54.302;10.124;2022-11-12T09:47:25;103211.31;;;11.68;90.02
18652;BME280;9455;54.302;10.124;2022-11-12T09:49:56;103211.84;;;11.75;89.39
18652;BME280;9455;54.302;10.124;2022-11-12T09:52:26;103222.44;;;11.59;90.02
18652;BME280;9455;54.302;10.124;2022-11-12T09:55:00;103216.31;;;11.74;89.82
18652;BME280;9455;54.302;10.124;2022-11-12T09:57:29;103216.88;;;11.81;89.59
18652;BME280;9455;54.302;10.124;2022-11-12T09:59:57;103214.66;;;11.89;88.78
18652;BME280;9455;54.302;10.124;2022-11-12T10:02:31;103233.03;;;11.95;89.45
18652;BME280;9455;54.302;10.124;2022-11-12T10:05:18;103222.16;;;11.82;89.46
18652;BME280;9455;54.302;10.124;2022-11-12T10:07:55;103221.19;;;11.83;89.09
18652;BME280;9455;54.302;10.124;2022-11-12T10:10:33;103221.72;;;11.90;89.18
18652;BME280;9455;54.302;10.124;2022-11-12T10:13:16;103231.88;;;11.83;89.19
18652;BME280;9455;54.302;10.124;2022-11-12T10:16:06;103231.66;;;11.88;89.06
18652;BME280;9455;54.302;10.124;2022-11-12T10:19:08;103241.44;;;12.04;88.50
18652;BME280;9455;54.302;10.124;2022-11-12T10:21:46;103249.84;;;11.97;88.29
18652;BME280;9455;54.302;10.124;2022-11-12T10:24:15;103260.06;;;12.06;87.91
18652;BME280;9455;54.302;10.124;2022-11-12T10:26:43;103247.69;;;12.20;87.05
18652;BME280;9455;54.302;10.124;2022-11-12T10:29:17;103255.88;;;12.17;87.11
18652;BME280;9455;54.302;10.124;2022-11-12T10:31:50;103255.84;;;12.02;88.13
18652;BME280;9455;54.302;10.124;2022-11-12T10:34:18;103260.94;;;12.06;88.39
18652;BME280;9455;54.302;10.124;2022-11-12T10:36:48;103263.81;;;12.19;88.23
18652;BME280;9455;54.302;10.124;2022-11-12T10:39:34;103256.84;;;12.32;86.92
18652;BME280;9455;54.302;10.124;2022-11-12T10:42:03;103258.75;;;12.30;86.54
18652;BME280;9455;54.302;10.124;2022-11-12T10:44:32;103250.28;;;12.22;86.53
18652;BME280;9455;54.302;10.124;2022-11-12T10:47:32;103260.06;;;12.38;86.26
18652;BME280;9455;54.302;10.124;2022-11-12T10:50:11;103251.13;;;12.22;88.08
18652;BME280;9455;54.302;10.124;2022-11-12T10:52:52;103243.47;;;12.47;87.18
18652;BME280;9455;54.302;10.124;2022-11-12T10:55:20;103239.16;;;12.45;87.09
18652;BME280;9455;54.302;10.124;2022-11-12T10:58:02;103238.03;;;12.49;87.75
18652;BME280;9455;54.302;10.124;2022-11-12T11:00:30;103240.47;;;12.69;87.75
18652;BME280;9455;54.302;10.124;2022-11-12T11:02:58;103234.78;;;12.75;85.80
18652;BME280;9455;54.302;10.124;2022-11-12T11:05:31;103234.59;;;12.78;86.08
18652;BME280;9455;54.302;10.124;2022-11-12T11:07:59;103232.16;;;12.89;86.40
18652;BME280;9455;54.302;10.124;2022-11-12T11:10:28;103231.56;;;12.84;86.61
18652;BME280;9455;54.302;10.124;2022-11-12T11:13:08;103231.91;;;12.93;86.44
18652;BME280;9455;54.302;10.124;2022-11-12T11:15:36;103227.78;;;12.88;85.41
18652;BME280;9455;54.302;10.124;2022-11-12T11:18:03;103225.84;;;12.90;85.91
18652;BME280;9455;54.302;10.124;2022-11-12T11:20:34;103211.09;;;12.98;85.35
18652;BME280;9455;54.302;10.124;2022-11-12T11:23:09;103221.88;;;12.97;85.53
18652;BME280;9455;54.302;10.124;2022-11-12T11:25:42;103224.06;;;13.06;84.65
18652;BME280;9455;54.302;10.124;2022-11-12T11:28:16;103216.78;;;13.08;84.13
18652;BME280;9455;54.302;10.124;2022-11-12T11:30:54;103219.59;;;13.20;84.43
18652;BME280;9455;54.302;10.124;2022-11-12T11:33:34;103218.09;;;13.30;84.22
18652;BME280;9455;54.302;10.124;2022-11-12T11:36:15;103217.00;;;13.34;84.44
18652;BME280;9455;54.302;10.124;2022-11-12T11:38:53;103214.97;;;13.38;84.54
18652;BME280;9455;54.302;10.124;2022-11-12T11:41:33;103217.25;;;13.30;84.34
18652;BME280;9455;54.302;10.124;2022-11-12T11:44:13;103220.03;;;13.28;84.82
18652;BME280;9455;54.302;10.124;2022-11-12T11:46:53;103220.91;;;13.43;84.22
18652;BME280;9455;54.302;10.124;2022-11-12T11:49:37;103223.59;;;13.43;84.21
18652;BME280;9455;54.302;10.124;2022-11-12T11:52:22;103222.97;;;13.24;85.53
18652;BME280;9455;54.302;10.124;2022-11-12T11:55:04;103222.91;;;13.39;85.17
18652;BME280;9455;54.302;10.124;2022-11-12T11:57:40;103223.31;;;13.18;85.68
18652;BME280;9455;54.302;10.124;2022-11-12T12:00:13;103215.81;;;13.24;85.20
18652;BME280;9455;54.302;10.124;2022-11-12T12:05:39;103211.41;;;13.08;86.17
18652;BME280;9455;54.302;10.124;2022-11-12T12:08:08;103214.44;;;13.17;85.81
18652;BME280;9455;54.302;10.124;2022-11-12T12:10:48;103213.56;;;13.17;85.62
18652;BME280;9455;54.302;10.124;2022-11-12T12:13:24;103210.72;;;13.20;85.41
18652;BME280;9455;54.302;10.124;2022-11-12T12:16:12;103217.69;;;13.22;85.69
18652;BME280;9455;54.302;10.124;2022-11-12T12:18:48;103218.41;;;13.26;85.76
18652;BME280;9455;54.302;10.124;2022-11-12T12:21:19;103215.72;;;13.26;86.13
18652;BME280;9455;54.302;10.124;2022-11-12T12:23:49;103212.44;;;13.21;85.72
18652;BME280;9455;54.302;10.124;2022-11-12T12:26:20;103213.00;;;13.12;86.68
18652;BME280;9455;54.302;10.124;2022-11-12T12:28:52;103209.09;;;13.17;86.75
18652;BME280;9455;54.302;10.124;2022-11-12T12:31:23;103207.03;;;13.07;87.04
18652;BME280;9455;54.302;10.124;2022-11-12T12:33:57;103198.50;;;13.00;87.71
18652;BME280;9455;54.302;10.124;2022-11-12T12:36:30;103200.03;;;13.04;87.56
18652;BME280;9455;54.302;10.124;2022-11-12T12:39:08;103205.47;;;13.03;87.17
18652;BME280;9455;54.302;10.124;2022-11-12T12:41:44;103203.94;;;12.99;88.06
18652;BME280;9455;54.302;10.124;2022-11-12T12:44:12;103190.69;;;12.96;88.41
18652;BME280;9455;54.302;10.124;2022-11-12T12:46:42;103192.34;;;12.98;88.28
18652;BME280;9455;54.302;10.124;2022-11-12T12:49:15;103194.41;;;12.93;88.23
18652;BME280;9455;54.302;10.124;2022-11-12T12:51:43;103192.41;;;12.97;88.33
18652;BME280;9455;54.302;10.124;2022-11-12T12:57:30;103192.41;;;12.97;89.42
18652;BME280;9455;54.302;10.124;2022-11-12T13:00:25;103196.66;;;13.01;89.02
18652;BME280;9455;54.302;10.124;2022-11-12T13:02:54;103191.72;;;12.93;88.83
18652;BME280;9455;54.302;10.124;2022-11-12T13:05:25;103187.22;;;12.94;90.06
18652;BME280;9455;54.302;10.124;2022-11-12T13:07:53;103184.91;;;12.88;90.37
18652;BME280;9455;54.302;10.124;2022-11-12T13:10:52;103185.84;;;12.87;89.67